createdAt,value
2023-01-17T00:02:24.248Z,6.09
2023-01-17T00:05:10.355Z,5.68
2023-01-17T00:07:56.404Z,5.50
2023-01-17T00:10:26.487Z,5.50
2023-01-17T00:13:03.112Z,5.39
2023-01-17T00:15:40.066Z,4.96
2023-01-17T00:18:07.561Z,5.02
2023-01-17T00:20:56.567Z,5.32
2023-01-17T00:23:47.835Z,5.39
2023-01-17T00:26:19.691Z,5.25
2023-01-17T00:28:49.120Z,5.43
2023-01-17T00:31:17.073Z,5.24
2023-01-17T00:33:44.409Z,5.25
2023-01-17T00:36:12.118Z,5.42
2023-01-17T00:38:40.192Z,5.29
2023-01-17T00:41:12.770Z,5.41
2023-01-17T00:43:59.668Z,5.27
2023-01-17T00:46:50.034Z,5.22
2023-01-17T00:49:35.844Z,5.24
2023-01-17T00:52:22.004Z,5.25
2023-01-17T00:55:08.092Z,5.41
2023-01-17T00:57:54.288Z,5.19
2023-01-17T01:00:41.870Z,5.25
2023-01-17T01:03:31.646Z,5.19
2023-01-17T01:06:17.943Z,5.11
2023-01-17T01:09:06.954Z,5.04
2023-01-17T01:11:54.670Z,5.21
2023-01-17T01:14:40.875Z,5.26
2023-01-17T01:17:27.064Z,5.18
2023-01-17T01:20:13.226Z,5.37
2023-01-17T01:22:59.422Z,5.50
2023-01-17T01:25:48.698Z,5.32
2023-01-17T01:28:34.760Z,5.37
2023-01-17T01:31:22.129Z,5.56
2023-01-17T01:33:53.443Z,5.31
2023-01-17T01:36:21.697Z,5.53
2023-01-17T01:38:50.383Z,5.57
2023-01-17T01:41:18.130Z,5.36
2023-01-17T01:43:54.004Z,5.52
2023-01-17T01:46:32.839Z,5.56
2023-01-17T01:49:28.378Z,5.41
2023-01-17T01:52:01.810Z,5.37
2023-01-17T01:54:41.101Z,5.65
2023-01-17T01:57:16.051Z,5.61
2023-01-17T01:59:49.589Z,5.63
2023-01-17T02:02:17.322Z,5.66
2023-01-17T02:04:45.448Z,5.46
2023-01-17T02:07:16.714Z,5.55
2023-01-17T02:09:45.000Z,5.41
2023-01-17T02:12:13.265Z,5.44
2023-01-17T02:14:40.829Z,5.46
2023-01-17T02:17:33.196Z,5.38
2023-01-17T02:20:34.232Z,5.44
2023-01-17T02:23:20.559Z,5.50
2023-01-17T02:25:47.976Z,5.53
2023-01-17T02:28:40.167Z,5.43
2023-01-17T02:31:37.820Z,5.34
2023-01-17T02:34:24.635Z,5.29
2023-01-17T02:36:58.591Z,5.34
2023-01-17T02:39:32.018Z,5.33
2023-01-17T02:42:06.714Z,5.35
2023-01-17T02:44:41.088Z,5.11
2023-01-17T02:47:25.257Z,5.05
2023-01-17T02:49:56.748Z,5.05
2023-01-17T02:52:43.891Z,5.02
2023-01-17T02:55:23.932Z,5.25
2023-01-17T02:58:16.073Z,5.28
2023-01-17T03:01:02.435Z,5.06
2023-01-17T03:03:34.303Z,5.02
2023-01-17T03:06:12.051Z,5.01
2023-01-17T03:08:45.000Z,5.01
2023-01-17T03:11:13.500Z,4.95
2023-01-17T03:13:42.290Z,4.95
2023-01-17T03:16:23.857Z,4.82
2023-01-17T03:18:51.780Z,4.90
2023-01-17T03:21:19.212Z,5.07
2023-01-17T03:23:46.768Z,4.68
2023-01-17T03:26:14.379Z,4.71
2023-01-17T03:28:41.951Z,4.43
2023-01-17T03:31:09.910Z,4.58
2023-01-17T03:33:37.292Z,4.21
2023-01-17T03:36:05.490Z,4.22
2023-01-17T03:38:33.042Z,4.28
2023-01-17T03:41:00.576Z,4.31
2023-01-17T03:43:28.090Z,4.31
2023-01-17T03:46:05.560Z,4.51
2023-01-17T03:48:33.273Z,4.61
2023-01-17T03:51:00.657Z,4.28
2023-01-17T03:53:28.160Z,4.73
2023-01-17T03:55:55.581Z,4.93
2023-01-17T03:58:22.924Z,4.98
2023-01-17T04:00:50.550Z,4.88
2023-01-17T04:03:18.972Z,4.94
2023-01-17T04:05:46.712Z,4.65
2023-01-17T04:08:14.151Z,4.78
2023-01-17T04:10:41.692Z,4.58
2023-01-17T04:13:09.127Z,4.85
2023-01-17T04:15:36.580Z,4.84
2023-01-17T04:18:04.865Z,4.58
2023-01-17T04:20:35.407Z,4.81
2023-01-17T04:23:03.414Z,4.90
2023-01-17T04:25:31.425Z,4.56
2023-01-17T04:28:00.049Z,4.83
2023-01-17T04:30:28.632Z,4.90
2023-01-17T04:32:56.694Z,4.87
2023-01-17T04:35:24.450Z,4.55
2023-01-17T04:37:52.189Z,4.66
2023-01-17T04:40:20.017Z,4.29
2023-01-17T04:42:48.177Z,3.93
2023-01-17T04:45:16.139Z,4.25
2023-01-17T04:47:43.617Z,3.95
2023-01-17T04:50:11.925Z,4.27
2023-01-17T04:52:39.355Z,4.02
2023-01-17T04:55:07.459Z,4.29
2023-01-17T04:57:34.901Z,4.41
2023-01-17T05:00:02.760Z,4.56
2023-01-17T05:02:30.252Z,4.44
2023-01-17T05:04:57.707Z,4.23
2023-01-17T05:07:25.461Z,4.16
2023-01-17T05:09:52.918Z,4.10
2023-01-17T05:12:20.428Z,4.23
2023-01-17T05:14:47.791Z,4.33
2023-01-17T05:17:15.132Z,4.27
2023-01-17T05:19:42.658Z,4.17
2023-01-17T05:22:15.463Z,4.37
2023-01-17T05:24:47.341Z,3.96
2023-01-17T05:27:15.014Z,3.94
2023-01-17T05:29:42.338Z,4.02
2023-01-17T05:32:09.988Z,4.33
2023-01-17T05:34:37.328Z,4.41
2023-01-17T05:37:04.921Z,4.49
2023-01-17T05:39:32.432Z,4.43
2023-01-17T05:41:59.961Z,4.32
2023-01-17T05:44:27.846Z,4.36
2023-01-17T05:46:56.319Z,4.38
2023-01-17T05:49:23.896Z,4.40
2023-01-17T05:51:53.500Z,4.39
2023-01-17T05:54:22.263Z,4.70
2023-01-17T05:56:49.698Z,4.87
2023-01-17T05:59:28.557Z,4.57
2023-01-17T06:02:03.465Z,4.65
2023-01-17T06:04:31.021Z,4.52
2023-01-17T06:06:58.763Z,4.53
2023-01-17T06:09:26.358Z,4.58
2023-01-17T06:11:53.743Z,4.55
2023-01-17T06:14:20.998Z,4.70
2023-01-17T06:16:48.751Z,4.77
2023-01-17T06:19:16.336Z,4.55
2023-01-17T06:21:43.878Z,4.68
2023-01-17T06:24:11.311Z,4.63
2023-01-17T06:26:38.860Z,4.86
2023-01-17T06:29:06.347Z,4.66
2023-01-17T06:31:33.866Z,4.76
2023-01-17T06:34:04.802Z,4.58
2023-01-17T06:36:35.551Z,4.42
2023-01-17T06:39:03.022Z,4.49
2023-01-17T06:41:30.529Z,4.35
2023-01-17T06:43:58.167Z,4.30
2023-01-17T06:46:25.933Z,4.37
2023-01-17T06:48:53.379Z,4.55
2023-01-17T06:51:20.941Z,4.55
2023-01-17T06:53:48.883Z,4.53
2023-01-17T06:56:16.289Z,4.42
2023-01-17T06:58:43.929Z,4.15
2023-01-17T07:01:13.064Z,4.39
2023-01-17T07:03:40.707Z,4.40
2023-01-17T07:06:09.598Z,4.44
2023-01-17T07:08:37.413Z,4.52
2023-01-17T07:11:07.969Z,4.72
2023-01-17T07:13:36.741Z,4.57
2023-01-17T07:16:05.171Z,4.54
2023-01-17T07:18:33.741Z,4.53
2023-01-17T07:21:01.348Z,4.85
2023-01-17T07:23:30.045Z,4.62
2023-01-17T07:25:59.259Z,4.65
2023-01-17T07:28:28.106Z,4.86
2023-01-17T07:30:55.624Z,5.10
2023-01-17T07:33:23.245Z,5.33
2023-01-17T07:35:50.693Z,5.33
2023-01-17T07:38:20.112Z,5.49
2023-01-17T07:40:47.535Z,5.50
2023-01-17T07:43:15.523Z,5.81
2023-01-17T07:45:49.529Z,5.74
2023-01-17T07:48:22.833Z,5.29
2023-01-17T07:50:57.660Z,5.08
2023-01-17T07:53:30.469Z,5.44
2023-01-17T07:56:04.803Z,5.53
2023-01-17T07:58:32.700Z,5.69
2023-01-17T08:01:05.610Z,5.40
2023-01-17T08:03:36.587Z,5.41
2023-01-17T08:06:04.419Z,5.65
2023-01-17T08:08:31.966Z,5.57
2023-01-17T08:10:59.859Z,5.47
2023-01-17T08:13:29.727Z,5.52
2023-01-17T08:15:57.181Z,5.31
2023-01-17T08:18:24.496Z,5.28
2023-01-17T08:20:51.825Z,5.42
2023-01-17T08:23:19.215Z,5.58
2023-01-17T08:25:47.030Z,5.42
2023-01-17T08:28:15.980Z,5.46
2023-01-17T08:30:43.598Z,5.25
2023-01-17T08:33:11.053Z,5.35
2023-01-17T08:35:38.616Z,5.35
2023-01-17T08:38:06.072Z,5.09
2023-01-17T08:40:33.746Z,5.06
2023-01-17T08:43:01.347Z,5.15
2023-01-17T08:45:29.245Z,5.12
2023-01-17T08:47:58.170Z,5.11
2023-01-17T08:50:27.448Z,5.27
2023-01-17T08:53:01.126Z,5.38
2023-01-17T08:55:29.220Z,5.44
2023-01-17T08:57:57.229Z,5.19
2023-01-17T09:00:24.993Z,5.10
2023-01-17T09:02:53.267Z,5.11
2023-01-17T09:05:23.609Z,4.79
2023-01-17T09:07:51.138Z,5.04
2023-01-17T09:10:18.774Z,4.92
2023-01-17T09:12:53.825Z,5.00
2023-01-17T09:15:24.969Z,4.79
2023-01-17T09:17:56.275Z,5.09
2023-01-17T09:20:25.119Z,5.28
2023-01-17T09:22:52.436Z,5.04
2023-01-17T09:25:20.235Z,5.14
2023-01-17T09:27:47.775Z,5.01
2023-01-17T09:30:15.554Z,4.95
2023-01-17T09:32:43.073Z,5.23
2023-01-17T09:35:13.470Z,5.21
2023-01-17T09:37:41.225Z,5.32
2023-01-17T09:40:18.387Z,5.32
2023-01-17T09:42:46.261Z,5.48
2023-01-17T09:45:17.768Z,5.58
2023-01-17T09:47:47.677Z,5.53
2023-01-17T09:50:34.564Z,5.54
2023-01-17T09:53:08.077Z,5.55
2023-01-17T09:55:53.446Z,5.66
2023-01-17T09:58:25.579Z,5.67
2023-01-17T10:01:07.495Z,5.86
2023-01-17T10:03:46.701Z,5.56
2023-01-17T10:06:15.544Z,5.80
2023-01-17T10:08:58.096Z,6.03
2023-01-17T10:11:37.479Z,5.97
2023-01-17T10:14:28.108Z,6.03
2023-01-17T10:17:10.947Z,5.89
2023-01-17T10:20:04.701Z,5.70
2023-01-17T10:23:04.334Z,5.75
2023-01-17T10:25:52.653Z,5.29
2023-01-17T10:28:31.439Z,5.33
2023-01-17T10:31:03.669Z,5.59
2023-01-17T10:33:54.314Z,5.22
2023-01-17T10:36:27.724Z,5.09
2023-01-17T10:39:05.310Z,5.21
2023-01-17T10:41:43.877Z,4.79
2023-01-17T10:44:51.073Z,4.89
2023-01-17T10:47:28.121Z,5.11
2023-01-17T10:50:02.029Z,5.06
2023-01-17T10:52:38.625Z,5.09
2023-01-17T10:55:21.696Z,5.22
2023-01-17T10:57:49.532Z,5.31
2023-01-17T11:00:50.527Z,4.99
2023-01-17T11:03:20.921Z,5.03
2023-01-17T11:06:22.252Z,5.07
2023-01-17T11:09:00.636Z,5.01
2023-01-17T11:11:32.015Z,5.04
2023-01-17T11:14:01.894Z,5.38
2023-01-17T11:16:33.355Z,5.53
2023-01-17T11:19:08.761Z,5.50
2023-01-17T11:21:38.391Z,5.62
2023-01-17T11:24:11.784Z,5.84
2023-01-17T11:26:47.622Z,5.87
2023-01-17T11:29:23.989Z,5.96
2023-01-17T11:31:51.835Z,5.72
2023-01-17T11:34:25.067Z,5.93
2023-01-17T11:37:17.741Z,5.69
2023-01-17T11:39:48.302Z,5.73
2023-01-17T11:42:38.323Z,5.60
2023-01-17T11:45:24.317Z,5.70
2023-01-17T11:48:13.391Z,5.71
2023-01-17T11:50:43.046Z,5.42
2023-01-17T11:53:31.563Z,5.31
2023-01-17T11:56:05.310Z,5.06
2023-01-17T11:58:34.878Z,5.29
2023-01-17T12:01:10.713Z,5.36
2023-01-17T12:04:00.351Z,5.34
2023-01-17T12:06:57.324Z,5.38
2023-01-17T12:09:45.602Z,5.48
2023-01-17T12:12:47.861Z,5.62
2023-01-17T12:15:23.885Z,5.63
2023-01-17T12:18:42.800Z,5.26
2023-01-17T12:21:46.686Z,5.01
2023-01-17T12:24:23.788Z,5.22
2023-01-17T12:27:30.178Z,5.55
2023-01-17T12:30:19.001Z,5.30
2023-01-17T12:33:08.707Z,5.37
2023-01-17T12:35:41.923Z,5.22
2023-01-17T12:38:27.487Z,5.18
2023-01-17T12:41:26.527Z,5.18
2023-01-17T12:43:56.663Z,5.10
2023-01-17T12:46:34.725Z,4.95
2023-01-17T12:49:21.610Z,5.11
2023-01-17T12:51:53.720Z,5.17
2023-01-17T12:54:27.924Z,5.15
2023-01-17T12:57:02.270Z,5.24
2023-01-17T12:59:37.979Z,5.38
2023-01-17T13:02:22.902Z,5.14
2023-01-17T13:05:03.258Z,5.24
2023-01-17T13:07:51.957Z,5.45
2023-01-17T13:10:41.098Z,5.34
2023-01-17T13:13:22.162Z,5.46
2023-01-17T13:15:55.577Z,5.45
2023-01-17T13:18:26.376Z,5.03
2023-01-17T13:21:18.333Z,4.71
2023-01-17T13:24:03.989Z,4.55
2023-01-17T13:26:56.235Z,4.63
2023-01-17T13:29:44.632Z,4.56
2023-01-17T13:32:50.533Z,4.81
2023-01-17T13:35:42.093Z,4.78
2023-01-17T13:38:22.177Z,4.84
2023-01-17T13:41:23.855Z,4.75
2023-01-17T13:44:10.029Z,4.35
2023-01-17T13:46:55.675Z,4.38
2023-01-17T13:49:29.372Z,4.36
2023-01-17T13:52:04.758Z,4.51
2023-01-17T13:54:33.457Z,4.17
2023-01-17T13:57:28.544Z,4.35
2023-01-17T13:59:58.069Z,4.53
2023-01-17T14:02:31.438Z,4.66
2023-01-17T14:05:16.388Z,4.42
2023-01-17T14:07:57.260Z,4.38
2023-01-17T14:10:37.124Z,4.44
2023-01-17T14:13:05.869Z,3.97
2023-01-17T14:15:35.519Z,4.26
2023-01-17T14:18:04.958Z,4.08
2023-01-17T14:20:46.056Z,4.38
2023-01-17T14:23:31.488Z,4.63
2023-01-17T14:26:00.754Z,4.67
2023-01-17T14:28:29.453Z,4.60
2023-01-17T14:30:58.977Z,4.53
2023-01-17T14:33:30.545Z,4.39
2023-01-17T14:36:02.425Z,4.29
2023-01-17T14:38:32.721Z,4.50
2023-01-17T14:41:09.946Z,4.23
2023-01-17T14:43:41.151Z,4.28
2023-01-17T14:46:25.758Z,4.41
2023-01-17T14:49:00.174Z,4.57
2023-01-17T14:51:28.497Z,4.40
2023-01-17T14:53:58.816Z,4.31
2023-01-17T14:56:28.467Z,4.17
2023-01-17T14:59:17.555Z,4.14
2023-01-17T15:02:06.259Z,4.16
2023-01-17T15:04:40.090Z,4.25
2023-01-17T15:07:13.325Z,4.33
2023-01-17T15:09:43.118Z,4.75
2023-01-17T15:12:13.925Z,4.91
2023-01-17T15:14:44.073Z,4.77
2023-01-17T15:17:19.714Z,4.74
2023-01-17T15:20:16.121Z,4.33
2023-01-17T15:22:43.818Z,4.46
2023-01-17T15:25:11.652Z,4.80
2023-01-17T15:27:39.135Z,4.25
2023-01-17T15:30:07.527Z,4.27
2023-01-17T15:32:38.055Z,4.44
2023-01-17T15:35:07.984Z,4.09
2023-01-17T15:37:37.131Z,4.25
2023-01-17T15:40:11.633Z,4.65
2023-01-17T15:42:42.898Z,4.67
2023-01-17T15:45:15.718Z,4.37
2023-01-17T15:47:44.205Z,3.99
2023-01-17T15:50:39.816Z,4.26
2023-01-17T15:53:29.638Z,4.34
2023-01-17T15:55:57.866Z,4.42
2023-01-17T15:58:28.519Z,4.61
2023-01-17T16:00:56.652Z,4.83
2023-01-17T16:03:29.412Z,4.29
2023-01-17T16:06:00.251Z,4.26
2023-01-17T16:08:32.772Z,4.33
2023-01-17T16:11:02.686Z,4.62
2023-01-17T16:13:32.880Z,4.55
2023-01-17T16:16:15.133Z,4.66
2023-01-17T16:18:42.859Z,4.75
2023-01-17T16:21:17.158Z,4.19
2023-01-17T16:23:45.199Z,4.38
2023-01-17T16:26:13.073Z,4.33
2023-01-17T16:28:40.512Z,4.59
2023-01-17T16:31:08.078Z,4.56
2023-01-17T16:33:35.655Z,4.41
2023-01-17T16:36:03.379Z,4.64
2023-01-17T16:38:32.356Z,4.30
2023-01-17T16:41:03.955Z,4.20
2023-01-17T16:43:31.667Z,4.41
2023-01-17T16:45:59.369Z,4.77
2023-01-17T16:48:26.751Z,4.63
2023-01-17T16:50:54.400Z,4.55
2023-01-17T16:53:28.172Z,4.34
2023-01-17T16:55:58.237Z,4.18
2023-01-17T16:58:25.839Z,4.40
2023-01-17T17:00:55.413Z,4.15
2023-01-17T17:03:23.252Z,4.23
2023-01-17T17:05:58.663Z,4.30
2023-01-17T17:08:29.155Z,4.28
2023-01-17T17:11:17.503Z,4.17
2023-01-17T17:13:46.812Z,4.17
2023-01-17T17:16:20.864Z,4.11
2023-01-17T17:18:56.924Z,4.29
2023-01-17T17:21:26.257Z,4.18
2023-01-17T17:23:59.252Z,4.23
2023-01-17T17:26:32.752Z,4.05
2023-01-17T17:29:00.728Z,4.00
2023-01-17T17:31:28.522Z,4.30
2023-01-17T17:34:01.917Z,4.44
2023-01-17T17:36:30.232Z,4.26
2023-01-17T17:38:58.177Z,4.27
2023-01-17T17:41:28.377Z,4.41
2023-01-17T17:43:56.094Z,4.60
2023-01-17T17:46:25.171Z,4.51
2023-01-17T17:48:53.015Z,4.47
2023-01-17T17:51:35.231Z,4.64
2023-01-17T17:54:10.177Z,4.42
2023-01-17T17:56:38.849Z,4.33
2023-01-17T17:59:08.211Z,4.62
2023-01-17T18:01:38.354Z,4.71
2023-01-17T18:04:07.676Z,4.73
2023-01-17T18:06:39.067Z,4.45
2023-01-17T18:09:12.045Z,4.55
2023-01-17T18:11:41.234Z,4.47
2023-01-17T18:14:11.502Z,4.34
2023-01-17T18:16:42.008Z,4.49
2023-01-17T18:19:21.483Z,4.43
2023-01-17T18:21:51.663Z,4.49
2023-01-17T18:24:24.438Z,4.46
2023-01-17T18:26:53.684Z,4.36
2023-01-17T18:29:21.880Z,4.16
2023-01-17T18:31:51.656Z,4.15
2023-01-17T18:34:23.934Z,4.30
2023-01-17T18:36:53.562Z,4.17
2023-01-17T18:39:23.339Z,4.04
2023-01-17T18:41:51.776Z,4.32
2023-01-17T18:44:22.575Z,4.20
2023-01-17T18:46:52.740Z,4.04
2023-01-17T18:49:20.557Z,4.03
2023-01-17T18:51:51.614Z,4.05
2023-01-17T18:54:20.352Z,4.24
2023-01-17T18:56:48.200Z,4.27
2023-01-17T18:59:18.454Z,4.21
2023-01-17T19:01:46.373Z,4.27
2023-01-17T19:04:16.188Z,4.32
2023-01-17T19:06:46.731Z,4.17
2023-01-17T19:09:18.406Z,4.34
2023-01-17T19:11:47.593Z,4.37
2023-01-17T19:14:15.845Z,4.27
2023-01-17T19:16:44.016Z,4.29
2023-01-17T19:19:14.020Z,4.22
2023-01-17T19:21:41.652Z,4.13
2023-01-17T19:24:10.956Z,4.05
2023-01-17T19:26:38.902Z,3.76
2023-01-17T19:29:06.946Z,3.64
2023-01-17T19:31:39.886Z,3.58
2023-01-17T19:34:07.413Z,3.72
2023-01-17T19:36:37.477Z,3.59
2023-01-17T19:39:06.847Z,3.73
2023-01-17T19:41:36.611Z,4.09
2023-01-17T19:44:06.905Z,4.05
2023-01-17T19:46:35.466Z,4.04
2023-01-17T19:49:04.242Z,3.99
2023-01-17T19:51:32.141Z,4.02
2023-01-17T19:54:04.217Z,4.00
2023-01-17T19:56:32.076Z,3.78
2023-01-17T19:59:01.755Z,3.80
2023-01-17T20:01:32.177Z,3.76
2023-01-17T20:04:01.403Z,3.98
2023-01-17T20:06:32.087Z,3.61
2023-01-17T20:08:59.502Z,3.74
2023-01-17T20:11:28.279Z,3.42
2023-01-17T20:13:57.228Z,3.59
2023-01-17T20:16:27.093Z,3.57
2023-01-17T20:18:54.727Z,3.79
2023-01-17T20:21:24.949Z,3.47
2023-01-17T20:23:53.670Z,3.58
2023-01-17T20:26:29.826Z,3.58
2023-01-17T20:28:57.435Z,3.35
2023-01-17T20:31:26.115Z,3.47
2023-01-17T20:33:56.441Z,3.80
2023-01-17T20:36:25.911Z,3.72
2023-01-17T20:38:54.577Z,3.99
2023-01-17T20:41:23.981Z,3.71
2023-01-17T20:43:54.524Z,3.65
2023-01-17T20:46:24.515Z,3.59
2023-01-17T20:48:54.527Z,3.31
2023-01-17T20:51:22.606Z,3.43
2023-01-17T20:53:59.689Z,3.15
2023-01-17T20:56:27.419Z,3.26
2023-01-17T20:58:55.186Z,3.49
2023-01-17T21:01:23.128Z,3.64
2023-01-17T21:03:53.191Z,3.63
2023-01-17T21:06:21.985Z,3.63
2023-01-17T21:08:49.444Z,3.12
2023-01-17T21:11:29.600Z,3.18
2023-01-17T21:13:57.778Z,3.36
2023-01-17T21:16:28.206Z,3.73
2023-01-17T21:18:58.808Z,3.50
2023-01-17T21:21:27.022Z,3.41
2023-01-17T21:23:57.702Z,3.49
2023-01-17T21:26:27.455Z,3.89
2023-01-17T21:29:01.429Z,3.86
2023-01-17T21:31:30.559Z,3.61
2023-01-17T21:34:05.803Z,3.47
2023-01-17T21:36:39.003Z,3.56
2023-01-17T21:39:17.884Z,3.68
2023-01-17T21:41:50.875Z,3.55
2023-01-17T21:44:21.130Z,3.49
2023-01-17T21:46:54.218Z,3.45
2023-01-17T21:49:22.650Z,3.32
2023-01-17T21:51:52.969Z,3.04
2023-01-17T21:54:41.773Z,3.18
2023-01-17T21:57:28.496Z,3.30
2023-01-17T21:59:55.888Z,3.24
2023-01-17T22:02:23.711Z,3.09
2023-01-17T22:04:51.673Z,3.18
2023-01-17T22:07:19.140Z,3.24
2023-01-17T22:09:46.689Z,3.03
2023-01-17T22:12:14.151Z,3.07
2023-01-17T22:14:41.876Z,3.06
2023-01-17T22:17:09.775Z,3.17
2023-01-17T22:19:37.165Z,3.21
2023-01-17T22:22:04.552Z,3.36
2023-01-17T22:24:32.437Z,2.98
2023-01-17T22:26:59.897Z,2.93
2023-01-17T22:29:27.318Z,2.79
2023-01-17T22:31:54.726Z,2.58
2023-01-17T22:34:22.940Z,2.77
2023-01-17T22:36:50.515Z,2.71
2023-01-17T22:39:17.870Z,2.64
2023-01-17T22:41:45.284Z,2.92
2023-01-17T22:44:12.821Z,3.00
2023-01-17T22:46:41.513Z,3.14
2023-01-17T22:49:13.473Z,2.83
2023-01-17T22:51:41.307Z,2.68
2023-01-17T22:54:11.629Z,2.89
2023-01-17T22:56:39.240Z,2.89
2023-01-17T22:59:11.599Z,3.02
2023-01-17T23:01:42.751Z,2.73
2023-01-17T23:04:13.060Z,2.75
2023-01-17T23:06:41.484Z,2.64
2023-01-17T23:09:11.408Z,2.83
2023-01-17T23:11:43.494Z,2.57
2023-01-17T23:14:31.149Z,2.67
2023-01-17T23:17:21.713Z,2.69
2023-01-17T23:19:54.511Z,2.79
2023-01-17T23:22:26.940Z,2.97
2023-01-17T23:25:05.086Z,2.74
2023-01-17T23:28:03.186Z,2.61
2023-01-17T23:30:36.198Z,2.82
2023-01-17T23:33:12.027Z,2.63
2023-01-17T23:35:42.222Z,2.53
2023-01-17T23:38:26.628Z,2.81
2023-01-17T23:41:24.749Z,2.80
2023-01-17T23:43:54.051Z,2.92
2023-01-17T23:46:22.466Z,2.48
2023-01-17T23:48:49.889Z,2.76
2023-01-17T23:51:17.267Z,2.65
2023-01-17T23:53:44.686Z,2.72
2023-01-17T23:56:18.438Z,2.59
2023-01-17T23:58:46.094Z,2.76
